TAF Text Data
IDs:
Format:
Raw Decoded Include METAR

Data at: 0308 UTC 21 Sep 2021

KSBY 202331Z 2100/2124 07003KT P6SM SCT250
  FM211300 09006KT P6SM BKN250
  FM211600 11008KT P6SM SCT045 BKN250